Pasinler, Turkey
Current Conditions -  °F | °C
As of 10:50 PM on Sunday 23 Nov 2014 (Local Time) from LTCE Reporting Station
Scattered Clouds Scattered Clouds  
Wind Chill: 13°   Ceiling: Unl
Heat Index: 21°   Visibility: 6mi
Dew Point: 18°   Wind: 7mph
Humidity: 86%   Direction: 120°ESE
Pressure: 30.03"   Gusts: NA
Location:  39.99°N, 41.69°E
Report Text: LTCE 231950Z 12006KT 9999 SCT030 M06/M08 Q1017 NOSIG
Loading
Personal Weather Stations






























Interactive Weather Map New forecast layout! Learn more

10-Day Weather Forecast

Advertisements
Track Severe Weather on mobile